ENST/SSJ METAR and TAF weather

Enter ICAO airport designator
Station Type Date Time Source
ENST METAR 2018/01/19 17:20 UTC NOAA

ENST 191720Z 10004KT 050V140 CAVOK M04/M13 Q0999 RMK WIND 300FT 11005KT


Station Type Date Time Source
ENST Decoded METAR 2018/01/19 17:20 UTC NOAA

Sandnessjoen / Stokka, Norway (ENST) 65-58N 012-28E 17M
Jan 19, 2018 - 12:20 PM EST / 2018.01.19 1720 UTC
Wind: from the E (100 degrees) at 5 MPH (4 KT) (direction variable):0
Visibility: greater than 7 mile(s):0
Temperature: 24 F (-4 C)
Windchill: 17 F (-8 C):1
Dew Point: 8 F (-13 C)
Relative Humidity: 49%
Pressure (altimeter): 29.50 in. Hg (0999 hPa)
ob: ENST 191720Z 10004KT 050V140 CAVOK M04/M13 Q0999 RMK WIND 300FT 11005KT
cycle: 17

Station Type Date Time Source
ENST TAF UTC NOAA

Error!


Example: see airport list